PTTBR SAWC-SAWH
Flight info
| Callsign | PTTBR |
|---|---|
| Flight time | N/A |
| Altitude | 29000 |
| Route | DEVIS2D DEVIS UW52 GAL UW42 GRA DCT DABLI DABLI1Q |
| Aircraft | HDJT/L-SABDGRWY/H |
Departure
| Time | 2026-04-28 22:09 |
|---|---|
| Airport | El Calafate - Commander Armando Tola International Airport (SAWC) |
Arrival
| Time | N/A |
|---|---|
| Airport | Ushuaia - Malvinas Argentinas International Airport (SAWH) |
| Time | Latitude | Longitude | Altitude | Speed | Heading |
|---|---|---|---|---|---|
| 2026-04-28 21:54 | -50.28330 | -72.04731 | 636 ft | 0 kts | 175° |
| 2026-04-28 22:01 | -50.28332 | -72.04732 | 636 ft | 1 kts | 217° |
| 2026-04-28 22:01 | -50.28328 | -72.04744 | 636 ft | 5 kts | 333° |
| 2026-04-28 22:01 | -50.28290 | -72.04738 | 636 ft | 6 kts | 353° |
| 2026-04-28 22:01 | -50.28252 | -72.04743 | 636 ft | 5 kts | 5° |
| 2026-04-28 22:02 | -50.28224 | -72.04755 | 636 ft | 3 kts | 293° |
| 2026-04-28 22:02 | -50.28224 | -72.04787 | 636 ft | 4 kts | 266° |
| 2026-04-28 22:02 | -50.28229 | -72.04870 | 636 ft | 11 kts | 264° |
| 2026-04-28 22:02 | -50.28234 | -72.05025 | 636 ft | 17 kts | 265° |
| 2026-04-28 22:03 | -50.28247 | -72.05223 | 636 ft | 11 kts | 265° |
| 2026-04-28 22:03 | -50.28253 | -72.05335 | 636 ft | 10 kts | 264° |
| 2026-04-28 22:03 | -50.28219 | -72.05401 | 636 ft | 8 kts | 354° |
| 2026-04-28 22:03 | -50.28161 | -72.05408 | 636 ft | 8 kts | 355° |
| 2026-04-28 22:04 | -50.28105 | -72.05415 | 636 ft | 8 kts | 355° |
| 2026-04-28 22:04 | -50.28058 | -72.05417 | 637 ft | 5 kts | 6° |
| 2026-04-28 22:04 | -50.28027 | -72.05371 | 637 ft | 9 kts | 75° |
| 2026-04-28 22:04 | -50.28016 | -72.05271 | 637 ft | 9 kts | 82° |
| 2026-04-28 22:05 | -50.28009 | -72.05168 | 637 ft | 10 kts | 85° |
| 2026-04-28 22:05 | -50.28004 | -72.05065 | 638 ft | 9 kts | 85° |
| 2026-04-28 22:05 | -50.27999 | -72.04973 | 639 ft | 8 kts | 85° |
| 2026-04-28 22:05 | -50.27994 | -72.04890 | 639 ft | 7 kts | 85° |
| 2026-04-28 22:06 | -50.27989 | -72.04800 | 639 ft | 11 kts | 85° |
| 2026-04-28 22:06 | -50.27981 | -72.04656 | 638 ft | 16 kts | 82° |
| 2026-04-28 22:06 | -50.27968 | -72.04460 | 638 ft | 21 kts | 85° |
| 2026-04-28 22:06 | -50.27955 | -72.04231 | 636 ft | 21 kts | 83° |
| 2026-04-28 22:07 | -50.27942 | -72.04001 | 635 ft | 21 kts | 84° |
| 2026-04-28 22:07 | -50.27931 | -72.03772 | 635 ft | 21 kts | 100° |
| 2026-04-28 22:07 | -50.27960 | -72.03577 | 636 ft | 16 kts | 59° |
| 2026-04-28 22:07 | -50.27919 | -72.03635 | 636 ft | 0 kts | 263° |
| 2026-04-28 22:08 | -50.27921 | -72.03656 | 636 ft | 15 kts | 263° |
| 2026-04-28 22:09 | -50.27961 | -72.04330 | 637 ft | 106 kts | 265° |
| 2026-04-28 22:09 | -50.28024 | -72.05654 | 1039 ft | 124 kts | 264° |
| 2026-04-28 22:09 | -50.28139 | -72.07185 | 1287 ft | 158 kts | 261° |
| 2026-04-28 22:09 | -50.28266 | -72.08873 | 2110 ft | 156 kts | 263° |
| 2026-04-28 22:10 | -50.28370 | -72.10582 | 2914 ft | 160 kts | 263° |
| 2026-04-28 22:10 | -50.28471 | -72.12333 | 3652 ft | 164 kts | 262° |
| 2026-04-28 22:10 | -50.28576 | -72.14139 | 4395 ft | 168 kts | 261° |
| 2026-04-28 22:10 | -50.28678 | -72.15966 | 5194 ft | 169 kts | 260° |
| 2026-04-28 22:11 | -50.28780 | -72.17781 | 5986 ft | 168 kts | 260° |
| 2026-04-28 22:11 | -50.28886 | -72.19613 | 6725 ft | 169 kts | 260° |
| 2026-04-28 22:11 | -50.28996 | -72.21536 | 7240 ft | 191 kts | 260° |
| 2026-04-28 22:11 | -50.29120 | -72.23742 | 7675 ft | 212 kts | 261° |
| 2026-04-28 22:12 | -50.29243 | -72.26004 | 8526 ft | 211 kts | 261° |
| 2026-04-28 22:12 | -50.29372 | -72.28306 | 9298 ft | 214 kts | 261° |
| 2026-04-28 22:12 | -50.29508 | -72.30644 | 10072 ft | 217 kts | 261° |
| 2026-04-28 22:12 | -50.29646 | -72.33010 | 10828 ft | 220 kts | 261° |
| 2026-04-28 22:13 | -50.29783 | -72.35418 | 11592 ft | 224 kts | 261° |
| 2026-04-28 22:13 | -50.30037 | -72.37849 | 12172 ft | 235 kts | 250° |
| 2026-04-28 22:13 | -50.30764 | -72.40229 | 12601 ft | 247 kts | 235° |
| 2026-04-28 22:13 | -50.31884 | -72.42249 | 13389 ft | 246 kts | 220° |
| 2026-04-28 22:14 | -50.33323 | -72.43720 | 14141 ft | 250 kts | 207° |
| 2026-04-28 22:14 | -50.34974 | -72.44631 | 14844 ft | 255 kts | 195° |
| 2026-04-28 22:14 | -50.36757 | -72.44919 | 15554 ft | 262 kts | 182° |
| 2026-04-28 22:14 | -50.38581 | -72.44517 | 16256 ft | 270 kts | 169° |
| 2026-04-28 22:15 | -50.40344 | -72.43383 | 16927 ft | 280 kts | 155° |
| 2026-04-28 22:15 | -50.41919 | -72.41509 | 17598 ft | 291 kts | 140° |
| 2026-04-28 22:15 | -50.43166 | -72.38952 | 18265 ft | 302 kts | 124° |
| 2026-04-28 22:15 | -50.43982 | -72.35850 | 18918 ft | 311 kts | 112° |
| 2026-04-28 22:16 | -50.44675 | -72.32615 | 19544 ft | 315 kts | 112° |
| 2026-04-28 22:16 | -50.45386 | -72.29342 | 20206 ft | 318 kts | 112° |
| 2026-04-28 22:16 | -50.46104 | -72.26049 | 20853 ft | 321 kts | 112° |
| 2026-04-28 22:16 | -50.46816 | -72.22762 | 21469 ft | 324 kts | 111° |
| 2026-04-28 22:17 | -50.47542 | -72.19399 | 22076 ft | 327 kts | 111° |
| 2026-04-28 22:17 | -50.48276 | -72.15995 | 22683 ft | 330 kts | 110° |
| 2026-04-28 22:17 | -50.49016 | -72.12560 | 23253 ft | 333 kts | 110° |
| 2026-04-28 22:17 | -50.49766 | -72.09072 | 23592 ft | 345 kts | 110° |
| 2026-04-28 22:18 | -50.50544 | -72.05450 | 23961 ft | 351 kts | 110° |
| 2026-04-28 22:18 | -50.51324 | -72.01804 | 24466 ft | 354 kts | 109° |
| 2026-04-28 22:18 | -50.52113 | -71.98119 | 24909 ft | 358 kts | 109° |
| 2026-04-28 22:18 | -50.52907 | -71.94401 | 25359 ft | 360 kts | 109° |
| 2026-04-28 22:19 | -50.53708 | -71.90645 | 25752 ft | 365 kts | 109° |
| 2026-04-28 22:19 | -50.54515 | -71.86852 | 26150 ft | 368 kts | 109° |
| 2026-04-28 22:19 | -50.55329 | -71.83021 | 26535 ft | 371 kts | 109° |
| 2026-04-28 22:19 | -50.56177 | -71.79186 | 26913 ft | 373 kts | 113° |
| 2026-04-28 22:20 | -50.57403 | -71.75592 | 27281 ft | 374 kts | 126° |
| 2026-04-28 22:20 | -50.59044 | -71.72420 | 27598 ft | 376 kts | 134° |
| 2026-04-28 22:20 | -50.60847 | -71.69420 | 27918 ft | 378 kts | 135° |
| 2026-04-28 22:20 | -50.62628 | -71.66343 | 28244 ft | 381 kts | 133° |
| 2026-04-28 22:21 | -50.64379 | -71.63128 | 28275 ft | 392 kts | 131° |
| 2026-04-28 22:21 | -50.68062 | -71.56516 | 28281 ft | 409 kts | 133° |
| 2026-04-28 22:22 | -50.71891 | -71.49681 | 28288 ft | 421 kts | 132° |
| 2026-04-28 22:22 | -50.75794 | -71.42647 | 28296 ft | 430 kts | 133° |
| 2026-04-28 22:23 | -50.79737 | -71.35556 | 28292 ft | 435 kts | 132° |
| 2026-04-28 22:23 | -50.83739 | -71.28317 | 28288 ft | 439 kts | 132° |
| 2026-04-28 22:24 | -50.87770 | -71.21015 | 28290 ft | 441 kts | 132° |
| 2026-04-28 22:24 | -50.91807 | -71.13672 | 28286 ft | 443 kts | 132° |
| 2026-04-28 22:25 | -50.95861 | -71.06287 | 28287 ft | 444 kts | 132° |
| 2026-04-28 22:25 | -50.99818 | -70.98771 | 28290 ft | 444 kts | 124° |
| 2026-04-28 22:26 | -51.02384 | -70.89895 | 28287 ft | 444 kts | 103° |
| 2026-04-28 22:26 | -51.03196 | -70.80204 | 28279 ft | 442 kts | 92° |
| 2026-04-28 22:27 | -51.03897 | -70.70554 | 28278 ft | 443 kts | 97° |
| 2026-04-28 22:27 | -51.04701 | -70.60837 | 28258 ft | 444 kts | 94° |
| 2026-04-28 22:28 | -51.05819 | -70.51207 | 28250 ft | 446 kts | 109° |
| 2026-04-28 22:28 | -51.08812 | -70.42617 | 28248 ft | 446 kts | 128° |
| 2026-04-28 22:29 | -51.12769 | -70.35031 | 28249 ft | 445 kts | 128° |
| 2026-04-28 22:29 | -51.16462 | -70.27107 | 28249 ft | 445 kts | 127° |
| 2026-04-28 22:30 | -51.20289 | -70.19337 | 28239 ft | 446 kts | 128° |
| 2026-04-28 22:30 | -51.24040 | -70.11468 | 28240 ft | 446 kts | 127° |
| 2026-04-28 22:31 | -51.27817 | -70.03630 | 28240 ft | 445 kts | 128° |
| 2026-04-28 22:31 | -51.31573 | -69.95764 | 28241 ft | 445 kts | 127° |
| 2026-04-28 22:32 | -51.35305 | -69.87944 | 28229 ft | 446 kts | 127° |
| 2026-04-28 22:32 | -51.39062 | -69.80044 | 28229 ft | 446 kts | 127° |
| 2026-04-28 22:33 | -51.42815 | -69.72125 | 28229 ft | 446 kts | 127° |
| 2026-04-28 22:33 | -51.46567 | -69.64189 | 28229 ft | 447 kts | 127° |
| 2026-04-28 22:34 | -51.50313 | -69.56232 | 28230 ft | 447 kts | 127° |
| 2026-04-28 22:34 | -51.54061 | -69.48260 | 28229 ft | 447 kts | 127° |
| 2026-04-28 22:35 | -51.57799 | -69.40273 | 28229 ft | 447 kts | 127° |
| 2026-04-28 22:35 | -51.62076 | -69.33090 | 28230 ft | 446 kts | 144° |
| 2026-04-28 22:35 | -51.64709 | -69.30460 | 28232 ft | 445 kts | 155° |
| 2026-04-28 22:36 | -51.67542 | -69.28483 | 28231 ft | 443 kts | 160° |
| 2026-04-28 22:36 | -51.73225 | -69.24758 | 28231 ft | 445 kts | 157° |
| 2026-04-28 22:37 | -51.78865 | -69.20654 | 28232 ft | 445 kts | 159° |
| 2026-04-28 22:37 | -51.83650 | -69.17401 | 28230 ft | 445 kts | 158° |
| 2026-04-28 22:38 | -51.89330 | -69.13351 | 28231 ft | 446 kts | 158° |
| 2026-04-28 22:38 | -51.95034 | -69.09360 | 28231 ft | 446 kts | 158° |
| 2026-04-28 22:39 | -52.00690 | -69.05348 | 28232 ft | 447 kts | 158° |
| 2026-04-28 22:39 | -52.06388 | -69.01315 | 28232 ft | 447 kts | 158° |
| 2026-04-28 22:40 | -52.12085 | -68.97263 | 28232 ft | 447 kts | 158° |
| 2026-04-28 22:40 | -52.17786 | -68.93202 | 28232 ft | 447 kts | 158° |
| 2026-04-28 22:41 | -52.23495 | -68.89120 | 28232 ft | 448 kts | 158° |
| 2026-04-28 22:41 | -52.29205 | -68.85028 | 28232 ft | 448 kts | 158° |
| 2026-04-28 22:42 | -52.34918 | -68.80923 | 28232 ft | 448 kts | 158° |
| 2026-04-28 22:42 | -52.40629 | -68.76804 | 28232 ft | 449 kts | 158° |
| 2026-04-28 22:43 | -52.46348 | -68.72670 | 28232 ft | 449 kts | 158° |
| 2026-04-28 22:43 | -52.52031 | -68.68551 | 28231 ft | 450 kts | 158° |
| 2026-04-28 22:44 | -52.57757 | -68.64388 | 28232 ft | 450 kts | 158° |
| 2026-04-28 22:44 | -52.63484 | -68.60211 | 28232 ft | 450 kts | 158° |
| 2026-04-28 22:45 | -52.69208 | -68.56028 | 28231 ft | 450 kts | 158° |
| 2026-04-28 22:45 | -52.74931 | -68.51829 | 28232 ft | 450 kts | 158° |
| 2026-04-28 22:46 | -52.80634 | -68.47635 | 28232 ft | 434 kts | 158° |
| 2026-04-28 22:46 | -52.83292 | -68.45669 | 28232 ft | 403 kts | 158° |
| 2026-04-28 22:46 | -52.85826 | -68.43806 | 28242 ft | 402 kts | 159° |
| 2026-04-28 22:47 | -52.91069 | -68.39950 | 28241 ft | 420 kts | 158° |
| 2026-04-28 22:47 | -52.96485 | -68.35930 | 28243 ft | 432 kts | 158° |
| 2026-04-28 22:48 | -53.01987 | -68.31850 | 28245 ft | 439 kts | 158° |
| 2026-04-28 22:48 | -53.07600 | -68.27670 | 28249 ft | 444 kts | 158° |
| 2026-04-28 22:49 | -53.13267 | -68.23438 | 28249 ft | 448 kts | 158° |
| 2026-04-28 22:49 | -53.18875 | -68.19238 | 28249 ft | 440 kts | 158° |
| 2026-04-28 22:50 | -53.24469 | -68.15040 | 28249 ft | 442 kts | 158° |
| 2026-04-28 22:50 | -53.30071 | -68.10819 | 28249 ft | 441 kts | 159° |
| 2026-04-28 22:51 | -53.35673 | -68.06589 | 28249 ft | 442 kts | 159° |
| 2026-04-28 22:51 | -53.41272 | -68.02347 | 28249 ft | 442 kts | 159° |
| 2026-04-28 22:52 | -53.46880 | -67.98087 | 28249 ft | 443 kts | 159° |
| 2026-04-28 22:52 | -53.52488 | -67.93815 | 28249 ft | 443 kts | 159° |
| 2026-04-28 22:53 | -53.57981 | -67.89607 | 28245 ft | 410 kts | 159° |
| 2026-04-28 22:53 | -53.60452 | -67.87707 | 28244 ft | 382 kts | 160° |
| 2026-04-28 22:53 | -53.62799 | -67.85914 | 28241 ft | 359 kts | 160° |
| 2026-04-28 22:53 | -53.65017 | -67.84218 | 28240 ft | 343 kts | 160° |
| 2026-04-28 22:54 | -53.67183 | -67.82558 | 28241 ft | 343 kts | 160° |
| 2026-04-28 22:54 | -53.71542 | -67.79207 | 28242 ft | 344 kts | 160° |
| 2026-04-28 22:55 | -53.75882 | -67.75857 | 27938 ft | 339 kts | 161° |
| 2026-04-28 22:55 | -53.78089 | -67.74642 | 27497 ft | 329 kts | 175° |
| 2026-04-28 22:55 | -53.80335 | -67.74254 | 27048 ft | 322 kts | 184° |
| 2026-04-28 22:55 | -53.82581 | -67.74072 | 26605 ft | 323 kts | 183° |
| 2026-04-28 22:56 | -53.84825 | -67.73826 | 26154 ft | 323 kts | 182° |
| 2026-04-28 22:56 | -53.87063 | -67.73563 | 25711 ft | 322 kts | 182° |
| 2026-04-28 22:56 | -53.89295 | -67.73326 | 25266 ft | 321 kts | 182° |
| 2026-04-28 22:56 | -53.91525 | -67.73100 | 24824 ft | 321 kts | 182° |
| 2026-04-28 22:57 | -53.93751 | -67.72864 | 24382 ft | 320 kts | 182° |
| 2026-04-28 22:57 | -53.95973 | -67.72620 | 23940 ft | 320 kts | 182° |
| 2026-04-28 22:57 | -53.98163 | -67.72386 | 23497 ft | 318 kts | 182° |
| 2026-04-28 22:57 | -54.00372 | -67.72153 | 23058 ft | 318 kts | 181° |
| 2026-04-28 22:58 | -54.02590 | -67.71917 | 22618 ft | 320 kts | 181° |
| 2026-04-28 22:58 | -54.04810 | -67.71677 | 22177 ft | 320 kts | 181° |
| 2026-04-28 22:58 | -54.07031 | -67.71437 | 21738 ft | 320 kts | 181° |
| 2026-04-28 22:58 | -54.09251 | -67.71201 | 21298 ft | 320 kts | 180° |
| 2026-04-28 22:59 | -54.11479 | -67.70962 | 20856 ft | 320 kts | 180° |
| 2026-04-28 22:59 | -54.13704 | -67.70722 | 20413 ft | 320 kts | 179° |
| 2026-04-28 22:59 | -54.15928 | -67.70481 | 19977 ft | 320 kts | 179° |
| 2026-04-28 22:59 | -54.18159 | -67.70242 | 19532 ft | 322 kts | 179° |
| 2026-04-28 23:00 | -54.20392 | -67.70001 | 19089 ft | 322 kts | 179° |
| 2026-04-28 23:00 | -54.22629 | -67.69759 | 18637 ft | 322 kts | 178° |
| 2026-04-28 23:00 | -54.24864 | -67.69516 | 18193 ft | 322 kts | 178° |
| 2026-04-28 23:00 | -54.27100 | -67.69275 | 17749 ft | 322 kts | 178° |
| 2026-04-28 23:01 | -54.29338 | -67.69032 | 17306 ft | 323 kts | 178° |
| 2026-04-28 23:01 | -54.31589 | -67.68787 | 16862 ft | 325 kts | 178° |
| 2026-04-28 23:01 | -54.33856 | -67.68540 | 16412 ft | 327 kts | 178° |
| 2026-04-28 23:01 | -54.36125 | -67.68294 | 15963 ft | 326 kts | 178° |
| 2026-04-28 23:02 | -54.38382 | -67.68047 | 15516 ft | 324 kts | 178° |
| 2026-04-28 23:02 | -54.40632 | -67.67802 | 15073 ft | 324 kts | 178° |
| 2026-04-28 23:02 | -54.42876 | -67.67558 | 14621 ft | 322 kts | 178° |
| 2026-04-28 23:02 | -54.45110 | -67.67313 | 14177 ft | 321 kts | 178° |
| 2026-04-28 23:03 | -54.47338 | -67.67069 | 13741 ft | 320 kts | 178° |
| 2026-04-28 23:03 | -54.49556 | -67.66826 | 13298 ft | 319 kts | 179° |
| 2026-04-28 23:03 | -54.51766 | -67.66583 | 12859 ft | 317 kts | 179° |
| 2026-04-28 23:03 | -54.53969 | -67.66341 | 12423 ft | 317 kts | 179° |
| 2026-04-28 23:04 | -54.56138 | -67.66102 | 11994 ft | 315 kts | 179° |
| 2026-04-28 23:04 | -54.60495 | -67.65621 | 11131 ft | 312 kts | 179° |
| 2026-04-28 23:04 | -54.62650 | -67.65383 | 10703 ft | 309 kts | 178° |
| 2026-04-28 23:05 | -54.64785 | -67.65148 | 10280 ft | 307 kts | 178° |
| 2026-04-28 23:05 | -54.66905 | -67.64912 | 9860 ft | 304 kts | 178° |
| 2026-04-28 23:05 | -54.69007 | -67.64675 | 9444 ft | 301 kts | 177° |
| 2026-04-28 23:05 | -54.71088 | -67.64438 | 9031 ft | 298 kts | 177° |
| 2026-04-28 23:06 | -54.73144 | -67.64205 | 8623 ft | 294 kts | 177° |
| 2026-04-28 23:06 | -54.75187 | -67.63982 | 8218 ft | 291 kts | 178° |
| 2026-04-28 23:06 | -54.77163 | -67.63769 | 7825 ft | 278 kts | 177° |
| 2026-04-28 23:06 | -54.79045 | -67.63864 | 7448 ft | 265 kts | 195° |
| 2026-04-28 23:07 | -54.80632 | -67.65270 | 7093 ft | 253 kts | 225° |
| 2026-04-28 23:07 | -54.81613 | -67.67684 | 6754 ft | 243 kts | 251° |
| 2026-04-28 23:07 | -54.81939 | -67.70461 | 6427 ft | 230 kts | 269° |
| 2026-04-28 23:07 | -54.82027 | -67.73179 | 6122 ft | 221 kts | 269° |
| 2026-04-28 23:08 | -54.82128 | -67.75808 | 5822 ft | 218 kts | 271° |
| 2026-04-28 23:08 | -54.81755 | -67.78523 | 5620 ft | 244 kts | 299° |
| 2026-04-28 23:08 | -54.81191 | -67.81232 | 5210 ft | 237 kts | 276° |
| 2026-04-28 23:08 | -54.81479 | -67.83984 | 4883 ft | 232 kts | 248° |
| 2026-04-28 23:09 | -54.82147 | -67.86468 | 4601 ft | 223 kts | 248° |
| 2026-04-28 23:09 | -54.82659 | -67.88920 | 4427 ft | 212 kts | 258° |
| 2026-04-28 23:09 | -54.82852 | -67.91429 | 4103 ft | 208 kts | 267° |
| 2026-04-28 23:09 | -54.82945 | -67.93907 | 3834 ft | 204 kts | 268° |
| 2026-04-28 23:10 | -54.83039 | -67.96328 | 3558 ft | 198 kts | 266° |
| 2026-04-28 23:10 | -54.83136 | -67.98692 | 3307 ft | 195 kts | 267° |
| 2026-04-28 23:10 | -54.83218 | -68.00983 | 3067 ft | 192 kts | 267° |
| 2026-04-28 23:10 | -54.83308 | -68.03271 | 2820 ft | 189 kts | 266° |
| 2026-04-28 23:11 | -54.83400 | -68.05538 | 2547 ft | 188 kts | 266° |
| 2026-04-28 23:11 | -54.83489 | -68.07791 | 2265 ft | 187 kts | 265° |
| 2026-04-28 23:11 | -54.83569 | -68.10006 | 2010 ft | 178 kts | 265° |
| 2026-04-28 23:11 | -54.83648 | -68.12054 | 1621 ft | 161 kts | 265° |
| 2026-04-28 23:12 | -54.83701 | -68.13332 | 1183 ft | 156 kts | 265° |